sensor_id;sensor_type;location;lat;lon;timestamp;pressure;altitude;pressure_sealevel;temperature
15607;BMP180;7865;50.918;4.510;2023-01-29T00:01:20;102513.00;;;-2.70
15607;BMP180;7865;50.918;4.510;2023-01-29T00:06:22;102520.00;;;-2.60
15607;BMP180;7865;50.918;4.510;2023-01-29T00:11:24;102525.00;;;-2.60
15607;BMP180;7865;50.918;4.510;2023-01-29T00:16:26;102517.00;;;-2.60
15607;BMP180;7865;50.918;4.510;2023-01-29T00:21:28;102502.00;;;-2.60
15607;BMP180;7865;50.918;4.510;2023-01-29T00:26:33;102501.00;;;-2.70
15607;BMP180;7865;50.918;4.510;2023-01-29T00:31:35;102501.00;;;-2.70
15607;BMP180;7865;50.918;4.510;2023-01-29T00:36:37;102498.00;;;-2.70
15607;BMP180;7865;50.918;4.510;2023-01-29T00:41:39;102496.00;;;-2.80
15607;BMP180;7865;50.918;4.510;2023-01-29T00:47:00;102486.00;;;-2.80
15607;BMP180;7865;50.918;4.510;2023-01-29T00:52:02;102481.00;;;-2.80
15607;BMP180;7865;50.918;4.510;2023-01-29T00:57:24;102478.00;;;-2.70
15607;BMP180;7865;50.918;4.510;2023-01-29T01:02:27;102482.00;;;-2.70
15607;BMP180;7865;50.918;4.510;2023-01-29T01:07:50;102468.00;;;-2.50
15607;BMP180;7865;50.918;4.510;2023-01-29T01:13:00;102454.00;;;-2.40
15607;BMP180;7865;50.918;4.510;2023-01-29T01:18:03;102452.00;;;-2.40
15607;BMP180;7865;50.918;4.510;2023-01-29T01:23:05;102453.00;;;-2.30
15607;BMP180;7865;50.918;4.510;2023-01-29T01:28:07;102449.00;;;-2.40
15607;BMP180;7865;50.918;4.510;2023-01-29T01:33:11;102443.00;;;-2.40
15607;BMP180;7865;50.918;4.510;2023-01-29T01:38:13;102461.00;;;-2.40
15607;BMP180;7865;50.918;4.510;2023-01-29T01:43:15;102461.00;;;-2.40
15607;BMP180;7865;50.918;4.510;2023-01-29T01:48:22;102450.00;;;-2.40
15607;BMP180;7865;50.918;4.510;2023-01-29T01:53:33;102456.00;;;-2.50
15607;BMP180;7865;50.918;4.510;2023-01-29T01:58:42;102467.00;;;-2.60
15607;BMP180;7865;50.918;4.510;2023-01-29T02:03:49;102454.00;;;-2.70
15607;BMP180;7865;50.918;4.510;2023-01-29T02:09:22;102466.00;;;-2.70
15607;BMP180;7865;50.918;4.510;2023-01-29T02:14:34;102469.00;;;-2.80
15607;BMP180;7865;50.918;4.510;2023-01-29T02:36:24;102484.00;;;-3.10
15607;BMP180;7865;50.918;4.510;2023-01-29T02:41:33;102486.00;;;-3.10
15607;BMP180;7865;50.918;4.510;2023-01-29T02:47:00;102497.00;;;-3.10
15607;BMP180;7865;50.918;4.510;2023-01-29T02:52:51;102478.00;;;-3.10
15607;BMP180;7865;50.918;4.510;2023-01-29T02:57:56;102489.00;;;-3.20
15607;BMP180;7865;50.918;4.510;2023-01-29T03:03:07;102491.00;;;-3.20
15607;BMP180;7865;50.918;4.510;2023-01-29T03:08:13;102488.00;;;-3.20
15607;BMP180;7865;50.918;4.510;2023-01-29T03:13:56;102472.00;;;-3.20
15607;BMP180;7865;50.918;4.510;2023-01-29T03:19:05;102486.00;;;-3.20
15607;BMP180;7865;50.918;4.510;2023-01-29T03:24:11;102479.00;;;-3.20
15607;BMP180;7865;50.918;4.510;2023-01-29T03:29:33;102491.00;;;-3.10
15607;BMP180;7865;50.918;4.510;2023-01-29T03:35:02;102498.00;;;-3.20
15607;BMP180;7865;50.918;4.510;2023-01-29T03:40:07;102496.00;;;-3.20
15607;BMP180;7865;50.918;4.510;2023-01-29T03:51:34;102488.00;;;-3.00
15607;BMP180;7865;50.918;4.510;2023-01-29T04:01:28;102461.00;;;-2.80
15607;BMP180;7865;50.918;4.510;2023-01-29T04:06:34;102460.00;;;-2.80
15607;BMP180;7865;50.918;4.510;2023-01-29T04:11:46;102465.00;;;-2.70
15607;BMP180;7865;50.918;4.510;2023-01-29T04:16:52;102456.00;;;-2.70
15607;BMP180;7865;50.918;4.510;2023-01-29T04:22:23;102452.00;;;-2.60
15607;BMP180;7865;50.918;4.510;2023-01-29T04:48:29;102426.00;;;-2.10
15607;BMP180;7865;50.918;4.510;2023-01-29T04:53:43;102418.00;;;-2.00
15607;BMP180;7865;50.918;4.510;2023-01-29T04:58:58;102422.00;;;-1.80
15607;BMP180;7865;50.918;4.510;2023-01-29T05:04:05;102409.00;;;-1.80
15607;BMP180;7865;50.918;4.510;2023-01-29T05:09:11;102412.00;;;-1.70
15607;BMP180;7865;50.918;4.510;2023-01-29T05:14:16;102404.00;;;-1.70
15607;BMP180;7865;50.918;4.510;2023-01-29T05:19:19;102403.00;;;-1.70
15607;BMP180;7865;50.918;4.510;2023-01-29T05:24:25;102419.00;;;-1.60
15607;BMP180;7865;50.918;4.510;2023-01-29T05:29:27;102393.00;;;-1.60
15607;BMP180;7865;50.918;4.510;2023-01-29T05:34:29;102378.00;;;-1.50
15607;BMP180;7865;50.918;4.510;2023-01-29T05:39:31;102386.00;;;-1.40
15607;BMP180;7865;50.918;4.510;2023-01-29T05:44:33;102376.00;;;-1.20
15607;BMP180;7865;50.918;4.510;2023-01-29T05:49:35;102384.00;;;-1.20
15607;BMP180;7865;50.918;4.510;2023-01-29T05:54:39;102383.00;;;-1.10
15607;BMP180;7865;50.918;4.510;2023-01-29T05:59:41;102400.00;;;-1.00
15607;BMP180;7865;50.918;4.510;2023-01-29T06:04:43;102389.00;;;-0.90
15607;BMP180;7865;50.918;4.510;2023-01-29T06:09:45;102390.00;;;-0.80
15607;BMP180;7865;50.918;4.510;2023-01-29T06:14:47;102402.00;;;-0.80
15607;BMP180;7865;50.918;4.510;2023-01-29T06:19:49;102390.00;;;-0.70
15607;BMP180;7865;50.918;4.510;2023-01-29T06:24:51;102378.00;;;-0.70
15607;BMP180;7865;50.918;4.510;2023-01-29T06:29:53;102394.00;;;-0.70
15607;BMP180;7865;50.918;4.510;2023-01-29T06:34:55;102394.00;;;-0.60
15607;BMP180;7865;50.918;4.510;2023-01-29T06:39:57;102399.00;;;-0.50
15607;BMP180;7865;50.918;4.510;2023-01-29T06:44:58;102397.00;;;-0.40
15607;BMP180;7865;50.918;4.510;2023-01-29T06:50:01;102399.00;;;-0.40
15607;BMP180;7865;50.918;4.510;2023-01-29T06:55:03;102389.00;;;-0.30
15607;BMP180;7865;50.918;4.510;2023-01-29T07:00:05;102384.00;;;-0.30
15607;BMP180;7865;50.918;4.510;2023-01-29T07:05:08;102406.00;;;-0.20
15607;BMP180;7865;50.918;4.510;2023-01-29T07:10:10;102407.00;;;-0.20
15607;BMP180;7865;50.918;4.510;2023-01-29T07:15:12;102404.00;;;-0.20
15607;BMP180;7865;50.918;4.510;2023-01-29T07:20:14;102390.00;;;-0.10
15607;BMP180;7865;50.918;4.510;2023-01-29T07:25:16;102376.00;;;-0.10
15607;BMP180;7865;50.918;4.510;2023-01-29T07:30:18;102366.00;;;-0.10
15607;BMP180;7865;50.918;4.510;2023-01-29T07:35:20;102366.00;;;0.00
15607;BMP180;7865;50.918;4.510;2023-01-29T07:40:22;102369.00;;;0.10
15607;BMP180;7865;50.918;4.510;2023-01-29T07:45:24;102385.00;;;0.10
15607;BMP180;7865;50.918;4.510;2023-01-29T07:50:26;102370.00;;;0.20
15607;BMP180;7865;50.918;4.510;2023-01-29T07:55:29;102373.00;;;0.30
15607;BMP180;7865;50.918;4.510;2023-01-29T08:00:31;102374.00;;;0.30
15607;BMP180;7865;50.918;4.510;2023-01-29T08:05:33;102359.00;;;0.40
15607;BMP180;7865;50.918;4.510;2023-01-29T08:10:36;102374.00;;;0.50
15607;BMP180;7865;50.918;4.510;2023-01-29T08:15:42;102368.00;;;0.60
15607;BMP180;7865;50.918;4.510;2023-01-29T08:20:45;102372.00;;;0.60
15607;BMP180;7865;50.918;4.510;2023-01-29T08:25:47;102382.00;;;0.70
15607;BMP180;7865;50.918;4.510;2023-01-29T08:30:49;102375.00;;;0.70
15607;BMP180;7865;50.918;4.510;2023-01-29T08:35:51;102387.00;;;0.90
15607;BMP180;7865;50.918;4.510;2023-01-29T08:40:53;102364.00;;;1.00
15607;BMP180;7865;50.918;4.510;2023-01-29T08:45:55;102360.00;;;1.10
15607;BMP180;7865;50.918;4.510;2023-01-29T08:50:58;102359.00;;;1.30
15607;BMP180;7865;50.918;4.510;2023-01-29T08:56:00;102360.00;;;1.50
15607;BMP180;7865;50.918;4.510;2023-01-29T09:01:11;102354.00;;;1.70
15607;BMP180;7865;50.918;4.510;2023-01-29T09:06:13;102341.00;;;1.90
15607;BMP180;7865;50.918;4.510;2023-01-29T09:11:15;102355.00;;;2.00
15607;BMP180;7865;50.918;4.510;2023-01-29T09:16:17;102351.00;;;2.00
15607;BMP180;7865;50.918;4.510;2023-01-29T09:21:20;102359.00;;;2.00
15607;BMP180;7865;50.918;4.510;2023-01-29T09:26:21;102359.00;;;1.90
15607;BMP180;7865;50.918;4.510;2023-01-29T09:31:23;102357.00;;;1.90
15607;BMP180;7865;50.918;4.510;2023-01-29T09:36:25;102349.00;;;1.90
15607;BMP180;7865;50.918;4.510;2023-01-29T09:46:37;102352.00;;;2.00
15607;BMP180;7865;50.918;4.510;2023-01-29T09:51:45;102339.00;;;2.10
15607;BMP180;7865;50.918;4.510;2023-01-29T09:56:52;102345.00;;;2.10
15607;BMP180;7865;50.918;4.510;2023-01-29T10:02:19;102337.00;;;2.20
15607;BMP180;7865;50.918;4.510;2023-01-29T10:18:29;102340.00;;;2.50
15607;BMP180;7865;50.918;4.510;2023-01-29T10:23:52;102336.00;;;2.60
15607;BMP180;7865;50.918;4.510;2023-01-29T10:28:59;102330.00;;;2.70
15607;BMP180;7865;50.918;4.510;2023-01-29T10:34:12;102323.00;;;2.80
15607;BMP180;7865;50.918;4.510;2023-01-29T10:39:20;102317.00;;;2.90
15607;BMP180;7865;50.918;4.510;2023-01-29T11:00:16;102306.00;;;3.30
15607;BMP180;7865;50.918;4.510;2023-01-29T11:05:34;102308.00;;;3.40
15607;BMP180;7865;50.918;4.510;2023-01-29T11:10:42;102292.00;;;3.50
15607;BMP180;7865;50.918;4.510;2023-01-29T11:15:50;102282.00;;;3.70
15607;BMP180;7865;50.918;4.510;2023-01-29T11:21:01;102282.00;;;3.80
15607;BMP180;7865;50.918;4.510;2023-01-29T11:26:04;102270.00;;;3.90
15607;BMP180;7865;50.918;4.510;2023-01-29T11:31:18;102262.00;;;4.00
15607;BMP180;7865;50.918;4.510;2023-01-29T11:36:29;102245.00;;;4.10
15607;BMP180;7865;50.918;4.510;2023-01-29T11:42:03;102235.00;;;4.20
15607;BMP180;7865;50.918;4.510;2023-01-29T11:47:25;102209.00;;;4.30
15607;BMP180;7865;50.918;4.510;2023-01-29T11:52:36;102200.00;;;4.50
15607;BMP180;7865;50.918;4.510;2023-01-29T11:57:46;102196.00;;;4.70
15607;BMP180;7865;50.918;4.510;2023-01-29T12:02:59;102187.00;;;4.90
15607;BMP180;7865;50.918;4.510;2023-01-29T12:08:09;102179.00;;;5.00
15607;BMP180;7865;50.918;4.510;2023-01-29T12:13:25;102180.00;;;5.10
15607;BMP180;7865;50.918;4.510;2023-01-29T12:18:38;102174.00;;;5.20
15607;BMP180;7865;50.918;4.510;2023-01-29T12:34:35;102148.00;;;5.30
15607;BMP180;7865;50.918;4.510;2023-01-29T12:39:39;102136.00;;;5.30
15607;BMP180;7865;50.918;4.510;2023-01-29T12:44:45;102117.00;;;5.40
15607;BMP180;7865;50.918;4.510;2023-01-29T12:49:53;102109.00;;;5.40
15607;BMP180;7865;50.918;4.510;2023-01-29T12:55:02;102107.00;;;5.70
15607;BMP180;7865;50.918;4.510;2023-01-29T13:00:14;102092.00;;;5.80
15607;BMP180;7865;50.918;4.510;2023-01-29T13:05:42;102097.00;;;5.80
15607;BMP180;7865;50.918;4.510;2023-01-29T13:10:45;102091.00;;;5.70
15607;BMP180;7865;50.918;4.510;2023-01-29T13:15:50;102082.00;;;5.40
15607;BMP180;7865;50.918;4.510;2023-01-29T13:20:53;102074.00;;;5.20
15607;BMP180;7865;50.918;4.510;2023-01-29T13:25:56;102069.00;;;5.30
15607;BMP180;7865;50.918;4.510;2023-01-29T13:36:23;102050.00;;;5.40
15607;BMP180;7865;50.918;4.510;2023-01-29T13:41:34;102047.00;;;5.30
15607;BMP180;7865;50.918;4.510;2023-01-29T13:46:39;102043.00;;;5.20
15607;BMP180;7865;50.918;4.510;2023-01-29T13:51:42;102038.00;;;5.10
15607;BMP180;7865;50.918;4.510;2023-01-29T13:56:55;102039.00;;;5.00
15607;BMP180;7865;50.918;4.510;2023-01-29T14:02:00;102029.00;;;4.90
15607;BMP180;7865;50.918;4.510;2023-01-29T14:12:46;102013.00;;;4.80
15607;BMP180;7865;50.918;4.510;2023-01-29T14:28:52;101999.00;;;4.60
15607;BMP180;7865;50.918;4.510;2023-01-29T14:34:02;102011.00;;;4.50
15607;BMP180;7865;50.918;4.510;2023-01-29T14:39:05;102006.00;;;4.50
15607;BMP180;7865;50.918;4.510;2023-01-29T14:44:46;102007.00;;;4.50
15607;BMP180;7865;50.918;4.510;2023-01-29T14:49:52;102003.00;;;4.50
15607;BMP180;7865;50.918;4.510;2023-01-29T14:54:58;102003.00;;;4.60
15607;BMP180;7865;50.918;4.510;2023-01-29T15:00:03;101999.00;;;4.60
15607;BMP180;7865;50.918;4.510;2023-01-29T15:05:11;101992.00;;;4.60
15607;BMP180;7865;50.918;4.510;2023-01-29T15:10:25;101987.00;;;4.60
15607;BMP180;7865;50.918;4.510;2023-01-29T15:15:50;101987.00;;;4.50
15607;BMP180;7865;50.918;4.510;2023-01-29T15:21:23;101982.00;;;4.40
15607;BMP180;7865;50.918;4.510;2023-01-29T15:26:25;101986.00;;;4.30
15607;BMP180;7865;50.918;4.510;2023-01-29T15:31:28;101993.00;;;4.20
15607;BMP180;7865;50.918;4.510;2023-01-29T15:36:31;101993.00;;;4.10
15607;BMP180;7865;50.918;4.510;2023-01-29T15:41:33;101995.00;;;4.00
15607;BMP180;7865;50.918;4.510;2023-01-29T15:46:37;101988.00;;;3.90
15607;BMP180;7865;50.918;4.510;2023-01-29T15:51:41;101970.00;;;3.90
15607;BMP180;7865;50.918;4.510;2023-01-29T15:56:46;101965.00;;;3.80
15607;BMP180;7865;50.918;4.510;2023-01-29T16:01:49;101966.00;;;3.70
15607;BMP180;7865;50.918;4.510;2023-01-29T16:06:52;101959.00;;;3.70
15607;BMP180;7865;50.918;4.510;2023-01-29T16:11:57;101954.00;;;3.60
15607;BMP180;7865;50.918;4.510;2023-01-29T16:17:19;101949.00;;;3.50
15607;BMP180;7865;50.918;4.510;2023-01-29T16:22:22;101948.00;;;3.40
15607;BMP180;7865;50.918;4.510;2023-01-29T16:27:25;101952.00;;;3.40
15607;BMP180;7865;50.918;4.510;2023-01-29T16:32:28;101939.00;;;3.40
15607;BMP180;7865;50.918;4.510;2023-01-29T16:37:32;101933.00;;;3.40
15607;BMP180;7865;50.918;4.510;2023-01-29T16:42:36;101923.00;;;3.30
15607;BMP180;7865;50.918;4.510;2023-01-29T16:47:39;101901.00;;;3.30
15607;BMP180;7865;50.918;4.510;2023-01-29T16:53:01;101907.00;;;3.30
15607;BMP180;7865;50.918;4.510;2023-01-29T16:58:28;101905.00;;;3.30
15607;BMP180;7865;50.918;4.510;2023-01-29T17:03:32;101892.00;;;3.30
15607;BMP180;7865;50.918;4.510;2023-01-29T17:08:35;101906.00;;;3.30
15607;BMP180;7865;50.918;4.510;2023-01-29T17:13:42;101895.00;;;3.30
15607;BMP180;7865;50.918;4.510;2023-01-29T17:18:45;101883.00;;;3.30
15607;BMP180;7865;50.918;4.510;2023-01-29T17:23:47;101896.00;;;3.30
15607;BMP180;7865;50.918;4.510;2023-01-29T17:28:50;101900.00;;;3.30
15607;BMP180;7865;50.918;4.510;2023-01-29T17:33:52;101885.00;;;3.30
15607;BMP180;7865;50.918;4.510;2023-01-29T17:38:54;101888.00;;;3.30
15607;BMP180;7865;50.918;4.510;2023-01-29T17:43:56;101886.00;;;3.30
15607;BMP180;7865;50.918;4.510;2023-01-29T17:48:59;101876.00;;;3.30
15607;BMP180;7865;50.918;4.510;2023-01-29T17:54:00;101878.00;;;3.30
15607;BMP180;7865;50.918;4.510;2023-01-29T17:59:12;101871.00;;;3.20
15607;BMP180;7865;50.918;4.510;2023-01-29T18:04:16;101858.00;;;3.20
15607;BMP180;7865;50.918;4.510;2023-01-29T18:09:19;101862.00;;;3.20
15607;BMP180;7865;50.918;4.510;2023-01-29T18:14:21;101853.00;;;3.20
15607;BMP180;7865;50.918;4.510;2023-01-29T18:19:24;101852.00;;;3.10
15607;BMP180;7865;50.918;4.510;2023-01-29T18:24:31;101861.00;;;3.10
15607;BMP180;7865;50.918;4.510;2023-01-29T18:29:34;101839.00;;;3.00
15607;BMP180;7865;50.918;4.510;2023-01-29T18:34:36;101830.00;;;3.00
15607;BMP180;7865;50.918;4.510;2023-01-29T18:39:38;101841.00;;;3.00
15607;BMP180;7865;50.918;4.510;2023-01-29T18:44:41;101841.00;;;3.10
15607;BMP180;7865;50.918;4.510;2023-01-29T18:49:43;101826.00;;;3.10
15607;BMP180;7865;50.918;4.510;2023-01-29T18:54:45;101808.00;;;3.20
15607;BMP180;7865;50.918;4.510;2023-01-29T18:59:47;101800.00;;;3.20
15607;BMP180;7865;50.918;4.510;2023-01-29T19:04:49;101787.00;;;3.20
15607;BMP180;7865;50.918;4.510;2023-01-29T19:09:52;101784.00;;;3.20
15607;BMP180;7865;50.918;4.510;2023-01-29T19:14:54;101779.00;;;3.30
15607;BMP180;7865;50.918;4.510;2023-01-29T19:19:55;101766.00;;;3.30
15607;BMP180;7865;50.918;4.510;2023-01-29T19:25:03;101757.00;;;3.30
15607;BMP180;7865;50.918;4.510;2023-01-29T19:30:06;101773.00;;;3.30
15607;BMP180;7865;50.918;4.510;2023-01-29T19:35:08;101778.00;;;3.20
15607;BMP180;7865;50.918;4.510;2023-01-29T19:40:10;101777.00;;;3.20
15607;BMP180;7865;50.918;4.510;2023-01-29T19:45:12;101754.00;;;3.20
15607;BMP180;7865;50.918;4.510;2023-01-29T19:50:14;101745.00;;;3.10
15607;BMP180;7865;50.918;4.510;2023-01-29T19:55:17;101717.00;;;3.10
15607;BMP180;7865;50.918;4.510;2023-01-29T20:00:20;101709.00;;;3.20
15607;BMP180;7865;50.918;4.510;2023-01-29T20:05:22;101713.00;;;3.30
15607;BMP180;7865;50.918;4.510;2023-01-29T20:10:24;101703.00;;;3.30
15607;BMP180;7865;50.918;4.510;2023-01-29T20:15:28;101704.00;;;3.40
15607;BMP180;7865;50.918;4.510;2023-01-29T20:20:30;101685.00;;;3.40
15607;BMP180;7865;50.918;4.510;2023-01-29T20:25:33;101698.00;;;3.40
15607;BMP180;7865;50.918;4.510;2023-01-29T20:30:36;101695.00;;;3.40
15607;BMP180;7865;50.918;4.510;2023-01-29T20:35:39;101702.00;;;3.40
15607;BMP180;7865;50.918;4.510;2023-01-29T20:40:41;101710.00;;;3.50
15607;BMP180;7865;50.918;4.510;2023-01-29T20:45:42;101701.00;;;3.60
15607;BMP180;7865;50.918;4.510;2023-01-29T20:50:45;101718.00;;;3.70
15607;BMP180;7865;50.918;4.510;2023-01-29T20:55:47;101737.00;;;3.70
15607;BMP180;7865;50.918;4.510;2023-01-29T21:00:49;101713.00;;;3.70
15607;BMP180;7865;50.918;4.510;2023-01-29T21:05:51;101694.00;;;3.70
15607;BMP180;7865;50.918;4.510;2023-01-29T21:10:55;101717.00;;;3.70
15607;BMP180;7865;50.918;4.510;2023-01-29T21:15:57;101687.00;;;3.70
15607;BMP180;7865;50.918;4.510;2023-01-29T21:20:59;101700.00;;;3.70
15607;BMP180;7865;50.918;4.510;2023-01-29T21:26:03;101702.00;;;3.80
15607;BMP180;7865;50.918;4.510;2023-01-29T21:31:08;101702.00;;;3.80
15607;BMP180;7865;50.918;4.510;2023-01-29T21:36:15;101712.00;;;3.80
15607;BMP180;7865;50.918;4.510;2023-01-29T21:41:17;101702.00;;;3.90
15607;BMP180;7865;50.918;4.510;2023-01-29T21:46:18;101702.00;;;3.90
15607;BMP180;7865;50.918;4.510;2023-01-29T21:51:20;101688.00;;;3.90
15607;BMP180;7865;50.918;4.510;2023-01-29T21:56:24;101685.00;;;4.00
15607;BMP180;7865;50.918;4.510;2023-01-29T22:01:26;101678.00;;;4.00
15607;BMP180;7865;50.918;4.510;2023-01-29T22:06:39;101682.00;;;4.10
15607;BMP180;7865;50.918;4.510;2023-01-29T22:11:41;101689.00;;;4.20
15607;BMP180;7865;50.918;4.510;2023-01-29T22:16:43;101700.00;;;4.20
15607;BMP180;7865;50.918;4.510;2023-01-29T22:21:46;101696.00;;;4.30
15607;BMP180;7865;50.918;4.510;2023-01-29T22:26:48;101682.00;;;4.30
15607;BMP180;7865;50.918;4.510;2023-01-29T22:31:50;101658.00;;;4.40
15607;BMP180;7865;50.918;4.510;2023-01-29T22:36:52;101589.00;;;4.40
15607;BMP180;7865;50.918;4.510;2023-01-29T22:41:54;101593.00;;;4.40
15607;BMP180;7865;50.918;4.510;2023-01-29T22:46:56;101581.00;;;4.40
15607;BMP180;7865;50.918;4.510;2023-01-29T22:51:58;101620.00;;;4.40
15607;BMP180;7865;50.918;4.510;2023-01-29T22:57:13;101626.00;;;4.50
15607;BMP180;7865;50.918;4.510;2023-01-29T23:02:15;101639.00;;;4.50
15607;BMP180;7865;50.918;4.510;2023-01-29T23:07:17;101645.00;;;4.50
15607;BMP180;7865;50.918;4.510;2023-01-29T23:12:18;101633.00;;;4.50
15607;BMP180;7865;50.918;4.510;2023-01-29T23:17:20;101619.00;;;4.50
15607;BMP180;7865;50.918;4.510;2023-01-29T23:22:23;101597.00;;;4.50
15607;BMP180;7865;50.918;4.510;2023-01-29T23:27:25;101579.00;;;4.50
15607;BMP180;7865;50.918;4.510;2023-01-29T23:32:27;101564.00;;;4.50
15607;BMP180;7865;50.918;4.510;2023-01-29T23:37:29;101573.00;;;4.50
15607;BMP180;7865;50.918;4.510;2023-01-29T23:42:31;101581.00;;;4.50
15607;BMP180;7865;50.918;4.510;2023-01-29T23:47:33;101552.00;;;4.60
15607;BMP180;7865;50.918;4.510;2023-01-29T23:52:34;101550.00;;;4.60
15607;BMP180;7865;50.918;4.510;2023-01-29T23:57:36;101528.00;;;4.60
